sensor_id;sensor_type;location;lat;lon;timestamp;pressure;altitude;pressure_sealevel;temperature;humidity
13581;BME280;6861;46.170;7.222;2023-03-26T00:02:03;95756.03;;;10.60;50.28
13581;BME280;6861;46.170;7.222;2023-03-26T00:04:31;95750.28;;;10.58;50.38
13581;BME280;6861;46.170;7.222;2023-03-26T00:07:00;95728.34;;;10.54;50.38
13581;BME280;6861;46.170;7.222;2023-03-26T00:09:28;95733.06;;;10.46;50.45
13581;BME280;6861;46.170;7.222;2023-03-26T00:11:56;95743.06;;;10.39;51.05
13581;BME280;6861;46.170;7.222;2023-03-26T00:14:25;95744.66;;;10.35;51.56
13581;BME280;6861;46.170;7.222;2023-03-26T00:16:56;95733.41;;;10.40;51.12
13581;BME280;6861;46.170;7.222;2023-03-26T00:19:24;95729.94;;;10.44;51.12
13581;BME280;6861;46.170;7.222;2023-03-26T00:21:53;95716.84;;;10.49;51.01
13581;BME280;6861;46.170;7.222;2023-03-26T00:24:23;95741.38;;;10.59;51.16
13581;BME280;6861;46.170;7.222;2023-03-26T00:26:55;95740.06;;;10.61;51.02
13581;BME280;6861;46.170;7.222;2023-03-26T00:29:23;95743.72;;;10.60;51.20
13581;BME280;6861;46.170;7.222;2023-03-26T00:31:53;95751.91;;;10.48;51.57
13581;BME280;6861;46.170;7.222;2023-03-26T00:34:23;95734.16;;;10.40;51.72
13581;BME280;6861;46.170;7.222;2023-03-26T00:36:52;95737.59;;;10.36;51.31
13581;BME280;6861;46.170;7.222;2023-03-26T00:39:20;95737.88;;;10.34;51.19
13581;BME280;6861;46.170;7.222;2023-03-26T00:41:49;95736.28;;;10.38;51.29
13581;BME280;6861;46.170;7.222;2023-03-26T00:44:20;95745.63;;;10.44;50.96
13581;BME280;6861;46.170;7.222;2023-03-26T00:46:48;95760.25;;;10.50;50.69
13581;BME280;6861;46.170;7.222;2023-03-26T00:49:16;95761.56;;;10.53;51.01
13581;BME280;6861;46.170;7.222;2023-03-26T00:51:45;95760.50;;;10.54;51.10
13581;BME280;6861;46.170;7.222;2023-03-26T00:54:13;95768.56;;;10.63;50.35
13581;BME280;6861;46.170;7.222;2023-03-26T00:56:42;95762.53;;;10.67;50.62
13581;BME280;6861;46.170;7.222;2023-03-26T00:59:10;95763.84;;;10.70;50.94
13581;BME280;6861;46.170;7.222;2023-03-26T01:01:38;95778.25;;;10.67;51.37
13581;BME280;6861;46.170;7.222;2023-03-26T01:04:22;95787.41;;;10.65;51.17
13581;BME280;6861;46.170;7.222;2023-03-26T01:06:56;95770.63;;;10.71;50.85
13581;BME280;6861;46.170;7.222;2023-03-26T01:09:31;95780.56;;;10.74;50.90
13581;BME280;6861;46.170;7.222;2023-03-26T01:12:01;95795.47;;;10.73;51.32
13581;BME280;6861;46.170;7.222;2023-03-26T01:14:31;95787.41;;;10.65;51.66
13581;BME280;6861;46.170;7.222;2023-03-26T01:17:00;95775.13;;;10.60;51.89
13581;BME280;6861;46.170;7.222;2023-03-26T01:19:35;95756.56;;;10.62;51.69
13581;BME280;6861;46.170;7.222;2023-03-26T01:22:07;95757.59;;;10.61;52.19
13581;BME280;6861;46.170;7.222;2023-03-26T01:24:38;95750.81;;;10.60;52.11
13581;BME280;6861;46.170;7.222;2023-03-26T01:27:14;95744.53;;;10.56;52.13
13581;BME280;6861;46.170;7.222;2023-03-26T01:29:52;95733.59;;;10.43;52.43
13581;BME280;6861;46.170;7.222;2023-03-26T01:32:26;95735.78;;;10.31;52.55
13581;BME280;6861;46.170;7.222;2023-03-26T01:35:08;95725.59;;;10.25;52.48
13581;BME280;6861;46.170;7.222;2023-03-26T01:37:48;95716.97;;;10.19;52.47
13581;BME280;6861;46.170;7.222;2023-03-26T01:40:24;95706.50;;;10.19;52.15
13581;BME280;6861;46.170;7.222;2023-03-26T01:42:57;95702.09;;;10.20;52.05
13581;BME280;6861;46.170;7.222;2023-03-26T01:45:29;95700.28;;;10.20;52.00
13581;BME280;6861;46.170;7.222;2023-03-26T01:47:59;95697.66;;;10.20;51.97
13581;BME280;6861;46.170;7.222;2023-03-26T01:50:27;95678.31;;;10.21;51.86
13581;BME280;6861;46.170;7.222;2023-03-26T01:52:55;95661.56;;;10.17;52.10
13581;BME280;6861;46.170;7.222;2023-03-26T01:55:30;95664.44;;;10.15;51.86
13581;BME280;6861;46.170;7.222;2023-03-26T01:58:07;95654.50;;;10.12;52.02
13581;BME280;6861;46.170;7.222;2023-03-26T02:00:41;95644.31;;;10.16;51.68
13581;BME280;6861;46.170;7.222;2023-03-26T02:03:21;95647.44;;;10.23;51.56
13581;BME280;6861;46.170;7.222;2023-03-26T02:05:56;95649.50;;;10.26;51.34
13581;BME280;6861;46.170;7.222;2023-03-26T02:08:30;95644.78;;;10.28;51.40
13581;BME280;6861;46.170;7.222;2023-03-26T02:11:04;95653.41;;;10.29;50.96
13581;BME280;6861;46.170;7.222;2023-03-26T02:13:38;95658.91;;;10.32;51.11
13581;BME280;6861;46.170;7.222;2023-03-26T02:16:09;95650.53;;;10.30;51.19
13581;BME280;6861;46.170;7.222;2023-03-26T02:18:40;95650.78;;;10.34;50.94
13581;BME280;6861;46.170;7.222;2023-03-26T02:21:11;95658.59;;;10.39;51.45
13581;BME280;6861;46.170;7.222;2023-03-26T02:23:41;95657.25;;;10.41;51.12
13581;BME280;6861;46.170;7.222;2023-03-26T02:26:16;95651.72;;;10.48;50.86
13581;BME280;6861;46.170;7.222;2023-03-26T02:28:44;95646.72;;;10.51;50.86
13581;BME280;6861;46.170;7.222;2023-03-26T02:31:13;95652.47;;;10.54;50.92
13581;BME280;6861;46.170;7.222;2023-03-26T02:33:42;95640.13;;;10.59;50.81
13581;BME280;6861;46.170;7.222;2023-03-26T02:36:13;95648.72;;;10.65;50.79
13581;BME280;6861;46.170;7.222;2023-03-26T02:38:44;95650.25;;;10.71;50.66
13581;BME280;6861;46.170;7.222;2023-03-26T02:41:13;95666.19;;;10.74;50.55
13581;BME280;6861;46.170;7.222;2023-03-26T02:43:41;95652.06;;;10.75;50.85
13581;BME280;6861;46.170;7.222;2023-03-26T02:46:09;95639.28;;;10.69;50.99
13581;BME280;6861;46.170;7.222;2023-03-26T02:48:37;95653.47;;;10.63;51.08
13581;BME280;6861;46.170;7.222;2023-03-26T02:51:07;95626.28;;;10.59;51.02
13581;BME280;6861;46.170;7.222;2023-03-26T02:53:35;95617.91;;;10.57;51.39
13581;BME280;6861;46.170;7.222;2023-03-26T02:56:05;95636.50;;;10.55;51.52
13581;BME280;6861;46.170;7.222;2023-03-26T02:58:35;95625.22;;;10.60;51.49
13581;BME280;6861;46.170;7.222;2023-03-26T03:01:03;95624.16;;;10.61;51.62
13581;BME280;6861;46.170;7.222;2023-03-26T03:03:31;95622.06;;;10.63;51.67
13581;BME280;6861;46.170;7.222;2023-03-26T03:06:00;95624.69;;;10.63;51.58
13581;BME280;6861;46.170;7.222;2023-03-26T03:08:28;95628.84;;;10.64;51.65
13581;BME280;6861;46.170;7.222;2023-03-26T03:10:57;95626.75;;;10.66;52.06
13581;BME280;6861;46.170;7.222;2023-03-26T03:13:26;95622.56;;;10.65;51.85
13581;BME280;6861;46.170;7.222;2023-03-26T03:15:55;95604.81;;;10.62;51.85
13581;BME280;6861;46.170;7.222;2023-03-26T03:18:23;95593.78;;;10.65;52.31
13581;BME280;6861;46.170;7.222;2023-03-26T03:20:51;95575.97;;;10.67;52.28
13581;BME280;6861;46.170;7.222;2023-03-26T03:23:20;95581.75;;;10.64;52.08
13581;BME280;6861;46.170;7.222;2023-03-26T03:25:48;95581.22;;;10.67;51.98
13581;BME280;6861;46.170;7.222;2023-03-26T03:28:18;95575.44;;;10.70;52.17
13581;BME280;6861;46.170;7.222;2023-03-26T03:30:46;95590.34;;;10.69;52.20
13581;BME280;6861;46.170;7.222;2023-03-26T03:33:16;95590.66;;;10.63;52.40
13581;BME280;6861;46.170;7.222;2023-03-26T03:35:45;95558.00;;;10.55;52.38
13581;BME280;6861;46.170;7.222;2023-03-26T03:38:15;95568.25;;;10.51;52.00
13581;BME280;6861;46.170;7.222;2023-03-26T03:40:44;95562.00;;;10.47;52.31
13581;BME280;6861;46.170;7.222;2023-03-26T03:43:13;95549.53;;;10.39;52.01
13581;BME280;6861;46.170;7.222;2023-03-26T03:45:41;95564.44;;;10.39;51.95
13581;BME280;6861;46.170;7.222;2023-03-26T03:48:09;95553.41;;;10.42;51.91
13581;BME280;6861;46.170;7.222;2023-03-26T03:50:38;95546.56;;;10.46;51.42
13581;BME280;6861;46.170;7.222;2023-03-26T03:53:07;95567.69;;;10.55;51.64
13581;BME280;6861;46.170;7.222;2023-03-26T03:55:35;95554.06;;;10.58;51.57
13581;BME280;6861;46.170;7.222;2023-03-26T03:58:04;95548.34;;;10.56;51.76
13581;BME280;6861;46.170;7.222;2023-03-26T04:00:34;95548.56;;;10.59;51.42
13581;BME280;6861;46.170;7.222;2023-03-26T04:03:03;95517.16;;;10.59;51.56
13581;BME280;6861;46.170;7.222;2023-03-26T04:05:32;95520.56;;;10.60;51.66
13581;BME280;6861;46.170;7.222;2023-03-26T04:08:02;95521.31;;;10.65;51.98
13581;BME280;6861;46.170;7.222;2023-03-26T04:10:30;95513.19;;;10.67;51.98
13581;BME280;6861;46.170;7.222;2023-03-26T04:12:58;95505.34;;;10.67;52.11
13581;BME280;6861;46.170;7.222;2023-03-26T04:15:26;95498.59;;;10.61;52.19
13581;BME280;6861;46.170;7.222;2023-03-26T04:17:54;95481.66;;;10.53;52.69
13581;BME280;6861;46.170;7.222;2023-03-26T04:20:22;95474.75;;;10.38;52.93
13581;BME280;6861;46.170;7.222;2023-03-26T04:22:50;95478.50;;;10.27;52.73
13581;BME280;6861;46.170;7.222;2023-03-26T04:25:19;95463.91;;;10.21;53.18
13581;BME280;6861;46.170;7.222;2023-03-26T04:27:48;95462.84;;;10.17;53.29
13581;BME280;6861;46.170;7.222;2023-03-26T04:30:17;95455.59;;;10.09;53.26
13581;BME280;6861;46.170;7.222;2023-03-26T04:32:47;95460.78;;;10.14;53.26
13581;BME280;6861;46.170;7.222;2023-03-26T04:35:16;95469.66;;;10.18;53.01
13581;BME280;6861;46.170;7.222;2023-03-26T04:37:45;95461.25;;;10.26;52.80
13581;BME280;6861;46.170;7.222;2023-03-26T04:40:16;95468.03;;;10.27;52.65
13581;BME280;6861;46.170;7.222;2023-03-26T04:42:46;95455.25;;;10.26;52.48
13581;BME280;6861;46.170;7.222;2023-03-26T04:45:16;95451.53;;;10.32;52.39
13581;BME280;6861;46.170;7.222;2023-03-26T04:47:48;95443.91;;;10.35;52.30
13581;BME280;6861;46.170;7.222;2023-03-26T04:50:16;95432.91;;;10.38;52.42
13581;BME280;6861;46.170;7.222;2023-03-26T04:52:45;95419.31;;;10.36;52.33
13581;BME280;6861;46.170;7.222;2023-03-26T04:55:20;95425.88;;;10.34;52.84
13581;BME280;6861;46.170;7.222;2023-03-26T04:57:54;95426.66;;;10.34;52.83
13581;BME280;6861;46.170;7.222;2023-03-26T05:00:23;95426.16;;;10.32;53.04
13581;BME280;6861;46.170;7.222;2023-03-26T05:02:51;95419.91;;;10.28;53.49
13581;BME280;6861;46.170;7.222;2023-03-26T05:05:22;95417.31;;;10.28;53.58
13581;BME280;6861;46.170;7.222;2023-03-26T05:07:50;95419.66;;;10.30;53.06
13581;BME280;6861;46.170;7.222;2023-03-26T05:10:18;95427.72;;;10.33;53.40
13581;BME280;6861;46.170;7.222;2023-03-26T05:12:47;95431.13;;;10.34;53.45
13581;BME280;6861;46.170;7.222;2023-03-26T05:15:17;95436.13;;;10.30;53.21
13581;BME280;6861;46.170;7.222;2023-03-26T05:17:45;95443.69;;;10.32;53.56
13581;BME280;6861;46.170;7.222;2023-03-26T05:20:17;95446.56;;;10.30;53.90
13581;BME280;6861;46.170;7.222;2023-03-26T05:22:47;95449.78;;;10.22;53.93
13581;BME280;6861;46.170;7.222;2023-03-26T05:25:15;95459.69;;;10.25;53.88
13581;BME280;6861;46.170;7.222;2023-03-26T05:27:44;95459.91;;;10.29;53.79
13581;BME280;6861;46.170;7.222;2023-03-26T05:30:14;95479.50;;;10.31;53.92
13581;BME280;6861;46.170;7.222;2023-03-26T05:32:44;95478.97;;;10.34;54.20
13581;BME280;6861;46.170;7.222;2023-03-26T05:35:15;95481.16;;;10.22;54.58
13581;BME280;6861;46.170;7.222;2023-03-26T05:37:44;95466.53;;;10.16;54.68
13581;BME280;6861;46.170;7.222;2023-03-26T05:40:13;95459.75;;;10.15;54.67
13581;BME280;6861;46.170;7.222;2023-03-26T05:42:43;95484.31;;;10.14;54.62
13581;BME280;6861;46.170;7.222;2023-03-26T05:45:12;95494.22;;;10.17;54.93
13581;BME280;6861;46.170;7.222;2023-03-26T05:47:41;95496.84;;;10.22;54.82
13581;BME280;6861;46.170;7.222;2023-03-26T05:50:11;95500.47;;;10.26;54.70
13581;BME280;6861;46.170;7.222;2023-03-26T05:52:39;95502.56;;;10.24;54.70
13581;BME280;6861;46.170;7.222;2023-03-26T05:55:08;95490.03;;;10.21;54.96
13581;BME280;6861;46.170;7.222;2023-03-26T05:57:36;95491.59;;;10.22;54.91
13581;BME280;6861;46.170;7.222;2023-03-26T06:00:07;95495.28;;;10.16;55.32
13581;BME280;6861;46.170;7.222;2023-03-26T06:02:36;95503.91;;;10.16;55.41
13581;BME280;6861;46.170;7.222;2023-03-26T06:05:05;95494.72;;;10.24;55.55
13581;BME280;6861;46.170;7.222;2023-03-26T06:07:36;95461.78;;;10.23;55.82
13581;BME280;6861;46.170;7.222;2023-03-26T06:10:06;95464.41;;;10.18;56.20
13581;BME280;6861;46.170;7.222;2023-03-26T06:12:35;95457.56;;;10.27;56.12
13581;BME280;6861;46.170;7.222;2023-03-26T06:15:06;95452.81;;;10.34;56.24
13581;BME280;6861;46.170;7.222;2023-03-26T06:17:34;95444.91;;;10.39;56.20
13581;BME280;6861;46.170;7.222;2023-03-26T06:20:02;95441.44;;;10.44;56.10
13581;BME280;6861;46.170;7.222;2023-03-26T06:22:35;95435.91;;;10.50;56.21
13581;BME280;6861;46.170;7.222;2023-03-26T06:25:05;95438.47;;;10.56;56.02
13581;BME280;6861;46.170;7.222;2023-03-26T06:27:33;95438.91;;;10.63;55.81
13581;BME280;6861;46.170;7.222;2023-03-26T06:30:01;95439.38;;;10.70;56.12
13581;BME280;6861;46.170;7.222;2023-03-26T06:32:29;95425.72;;;10.73;56.34
13581;BME280;6861;46.170;7.222;2023-03-26T06:34:57;95407.25;;;10.64;56.48
13581;BME280;6861;46.170;7.222;2023-03-26T06:37:25;95399.72;;;10.58;56.64
13581;BME280;6861;46.170;7.222;2023-03-26T06:39:53;95384.59;;;10.55;56.88
13581;BME280;6861;46.170;7.222;2023-03-26T06:42:22;95377.00;;;10.53;56.86
13581;BME280;6861;46.170;7.222;2023-03-26T06:45:10;95382.63;;;10.41;57.16
13581;BME280;6861;46.170;7.222;2023-03-26T06:47:38;95372.56;;;10.30;57.25
13581;BME280;6861;46.170;7.222;2023-03-26T06:50:08;95367.13;;;10.26;57.13
13581;BME280;6861;46.170;7.222;2023-03-26T06:52:37;95379.13;;;10.27;56.95
13581;BME280;6861;46.170;7.222;2023-03-26T06:55:05;95385.47;;;10.21;56.95
13581;BME280;6861;46.170;7.222;2023-03-26T06:57:37;95362.44;;;10.23;57.01
13581;BME280;6861;46.170;7.222;2023-03-26T07:00:06;95360.09;;;10.22;57.00
13581;BME280;6861;46.170;7.222;2023-03-26T07:02:35;95390.69;;;10.21;56.86
13581;BME280;6861;46.170;7.222;2023-03-26T07:05:03;95399.03;;;10.23;57.00
13581;BME280;6861;46.170;7.222;2023-03-26T07:07:31;95406.28;;;10.31;56.86
13581;BME280;6861;46.170;7.222;2023-03-26T07:09:59;95409.91;;;10.35;56.66
13581;BME280;6861;46.170;7.222;2023-03-26T07:12:27;95411.41;;;10.41;56.42
13581;BME280;6861;46.170;7.222;2023-03-26T07:14:58;95421.59;;;10.43;56.34
13581;BME280;6861;46.170;7.222;2023-03-26T07:17:27;95411.91;;;10.43;56.41
13581;BME280;6861;46.170;7.222;2023-03-26T07:19:55;95416.31;;;10.48;56.24
13581;BME280;6861;46.170;7.222;2023-03-26T07:22:24;95406.00;;;10.57;56.54
13581;BME280;6861;46.170;7.222;2023-03-26T07:24:53;95397.06;;;10.63;56.30
13581;BME280;6861;46.170;7.222;2023-03-26T07:27:32;95392.38;;;10.60;56.29
13581;BME280;6861;46.170;7.222;2023-03-26T07:30:07;95386.59;;;10.63;56.60
13581;BME280;6861;46.170;7.222;2023-03-26T07:32:40;95398.84;;;10.67;56.80
13581;BME280;6861;46.170;7.222;2023-03-26T07:35:19;95403.28;;;10.67;57.19
13581;BME280;6861;46.170;7.222;2023-03-26T07:37:58;95402.34;;;10.58;57.68
13581;BME280;6861;46.170;7.222;2023-03-26T07:40:40;95405.63;;;10.44;58.09
13581;BME280;6861;46.170;7.222;2023-03-26T07:43:20;95415.66;;;10.37;57.88
13581;BME280;6861;46.170;7.222;2023-03-26T07:45:54;95394.50;;;10.34;58.00
13581;BME280;6861;46.170;7.222;2023-03-26T07:48:24;95402.63;;;10.32;57.59
13581;BME280;6861;46.170;7.222;2023-03-26T07:50:54;95414.63;;;10.33;58.29
13581;BME280;6861;46.170;7.222;2023-03-26T07:53:23;95419.25;;;10.41;57.86
13581;BME280;6861;46.170;7.222;2023-03-26T07:55:56;95417.41;;;10.42;57.94
13581;BME280;6861;46.170;7.222;2023-03-26T07:58:44;95422.38;;;10.43;58.04
13581;BME280;6861;46.170;7.222;2023-03-26T08:01:23;95429.66;;;10.46;57.89
13581;BME280;6861;46.170;7.222;2023-03-26T08:04:37;95410.78;;;10.49;58.13
13581;BME280;6861;46.170;7.222;2023-03-26T08:07:15;95405.22;;;10.56;58.25
13581;BME280;6861;46.170;7.222;2023-03-26T08:09:57;95394.94;;;10.65;57.97
13581;BME280;6861;46.170;7.222;2023-03-26T08:12:36;95399.06;;;10.71;57.99
13581;BME280;6861;46.170;7.222;2023-03-26T08:15:12;95405.28;;;10.75;58.39
13581;BME280;6861;46.170;7.222;2023-03-26T08:17:49;95392.16;;;10.80;58.37
13581;BME280;6861;46.170;7.222;2023-03-26T08:20:27;95390.53;;;10.84;58.78
13581;BME280;6861;46.170;7.222;2023-03-26T08:23:04;95383.47;;;10.84;58.49
13581;BME280;6861;46.170;7.222;2023-03-26T08:25:44;95382.69;;;10.84;58.58
13581;BME280;6861;46.170;7.222;2023-03-26T08:28:24;95381.13;;;10.83;58.83
13581;BME280;6861;46.170;7.222;2023-03-26T08:30:57;95388.41;;;10.86;58.51
13581;BME280;6861;46.170;7.222;2023-03-26T08:33:30;95387.66;;;10.86;58.85
13581;BME280;6861;46.170;7.222;2023-03-26T08:36:02;95396.78;;;10.88;58.34
13581;BME280;6861;46.170;7.222;2023-03-26T08:38:31;95400.94;;;10.89;58.61
13581;BME280;6861;46.170;7.222;2023-03-26T08:56:50;95466.97;;;10.57;59.81
13581;BME280;6861;46.170;7.222;2023-03-26T08:59:40;95454.25;;;10.45;60.55
13581;BME280;6861;46.170;7.222;2023-03-26T09:02:33;95442.78;;;10.41;60.23
13581;BME280;6861;46.170;7.222;2023-03-26T09:05:30;95444.81;;;10.49;60.28
13581;BME280;6861;46.170;7.222;2023-03-26T09:12:16;95456.41;;;10.67;60.07
13581;BME280;6861;46.170;7.222;2023-03-26T09:18:20;95444.00;;;10.78;60.43
13581;BME280;6861;46.170;7.222;2023-03-26T09:27:21;95436.47;;;10.95;59.98
13581;BME280;6861;46.170;7.222;2023-03-26T09:33:26;95397.34;;;10.85;60.12
13581;BME280;6861;46.170;7.222;2023-03-26T09:36:21;95392.88;;;10.86;59.98
13581;BME280;6861;46.170;7.222;2023-03-26T09:38:59;95402.94;;;10.97;60.42
13581;BME280;6861;46.170;7.222;2023-03-26T09:41:40;95389.81;;;11.02;60.24
13581;BME280;6861;46.170;7.222;2023-03-26T09:44:28;95388.25;;;11.01;60.40
13581;BME280;6861;46.170;7.222;2023-03-26T09:50:30;95395.50;;;10.86;60.27
13581;BME280;6861;46.170;7.222;2023-03-26T09:53:19;95395.72;;;10.89;60.42
13581;BME280;6861;46.170;7.222;2023-03-26T09:56:00;95398.34;;;10.89;60.69
13581;BME280;6861;46.170;7.222;2023-03-26T09:58:40;95397.28;;;10.90;60.56
13581;BME280;6861;46.170;7.222;2023-03-26T10:01:18;95393.03;;;10.94;60.53
13581;BME280;6861;46.170;7.222;2023-03-26T10:04:01;95390.47;;;10.89;60.48
13581;BME280;6861;46.170;7.222;2023-03-26T10:06:43;95397.16;;;11.00;60.74
13581;BME280;6861;46.170;7.222;2023-03-26T10:09:25;95417.97;;;11.10;60.63
13581;BME280;6861;46.170;7.222;2023-03-26T10:12:12;95425.22;;;11.19;60.82
13581;BME280;6861;46.170;7.222;2023-03-26T10:14:48;95447.16;;;11.23;60.22
13581;BME280;6861;46.170;7.222;2023-03-26T10:17:35;95444.09;;;11.15;60.50
13581;BME280;6861;46.170;7.222;2023-03-26T10:20:27;95435.19;;;11.16;60.00
13581;BME280;6861;46.170;7.222;2023-03-26T10:23:17;95445.38;;;11.18;60.64
13581;BME280;6861;46.170;7.222;2023-03-26T10:26:00;95436.25;;;11.15;60.08
13581;BME280;6861;46.170;7.222;2023-03-26T10:28:39;95449.41;;;11.10;60.51
13581;BME280;6861;46.170;7.222;2023-03-26T10:34:43;95466.66;;;10.88;60.88
13581;BME280;6861;46.170;7.222;2023-03-26T10:37:20;95445.44;;;10.89;61.08
13581;BME280;6861;46.170;7.222;2023-03-26T10:40:08;95455.91;;;10.89;61.05
13581;BME280;6861;46.170;7.222;2023-03-26T10:43:14;95472.91;;;10.92;60.80
13581;BME280;6861;46.170;7.222;2023-03-26T10:49:06;95442.09;;;10.83;61.55
13581;BME280;6861;46.170;7.222;2023-03-26T10:51:46;95438.25;;;10.76;61.58
13581;BME280;6861;46.170;7.222;2023-03-26T10:54:28;95441.88;;;10.80;61.85
13581;BME280;6861;46.170;7.222;2023-03-26T10:56:59;95443.38;;;10.86;61.91
13581;BME280;6861;46.170;7.222;2023-03-26T10:59:30;95429.41;;;10.96;61.36
13581;BME280;6861;46.170;7.222;2023-03-26T11:02:05;95418.75;;;11.11;61.96
13581;BME280;6861;46.170;7.222;2023-03-26T11:04:48;95401.41;;;11.34;60.95
13581;BME280;6861;46.170;7.222;2023-03-26T11:07:25;95373.09;;;11.55;60.81
13581;BME280;6861;46.170;7.222;2023-03-26T11:10:01;95367.91;;;11.68;60.37
13581;BME280;6861;46.170;7.222;2023-03-26T11:12:36;95372.88;;;11.89;59.96
13581;BME280;6861;46.170;7.222;2023-03-26T11:15:16;95376.81;;;12.05;59.51
13581;BME280;6861;46.170;7.222;2023-03-26T11:17:57;95358.09;;;12.39;58.06
13581;BME280;6861;46.170;7.222;2023-03-26T11:20:34;95350.22;;;12.80;57.22
13581;BME280;6861;46.170;7.222;2023-03-26T11:23:32;95340.88;;;12.88;56.29
13581;BME280;6861;46.170;7.222;2023-03-26T11:26:08;95340.19;;;12.82;56.89
13581;BME280;6861;46.170;7.222;2023-03-26T11:29:02;95349.81;;;12.87;57.46
13581;BME280;6861;46.170;7.222;2023-03-26T11:31:58;95346.34;;;13.13;56.89
13581;BME280;6861;46.170;7.222;2023-03-26T11:34:33;95344.28;;;13.38;56.20
13581;BME280;6861;46.170;7.222;2023-03-26T11:37:06;95328.41;;;13.43;56.18
13581;BME280;6861;46.170;7.222;2023-03-26T11:39:41;95318.06;;;13.47;55.70
13581;BME280;6861;46.170;7.222;2023-03-26T11:42:13;95299.25;;;13.53;55.29
13581;BME280;6861;46.170;7.222;2023-03-26T11:44:45;95295.44;;;13.59;55.76
13581;BME280;6861;46.170;7.222;2023-03-26T11:47:20;95285.44;;;13.70;54.81
13581;BME280;6861;46.170;7.222;2023-03-26T11:49:52;95291.41;;;13.84;54.87
13581;BME280;6861;46.170;7.222;2023-03-26T11:52:22;95290.94;;;13.91;55.00
13581;BME280;6861;46.170;7.222;2023-03-26T11:54:52;95287.25;;;13.92;54.71
13581;BME280;6861;46.170;7.222;2023-03-26T11:57:27;95287.06;;;13.57;54.53
13581;BME280;6861;46.170;7.222;2023-03-26T12:00:00;95277.88;;;13.24;56.31
13581;BME280;6861;46.170;7.222;2023-03-26T12:02:37;95261.81;;;13.11;56.07
13581;BME280;6861;46.170;7.222;2023-03-26T12:05:16;95255.59;;;13.07;55.99
13581;BME280;6861;46.170;7.222;2023-03-26T12:07:49;95255.78;;;13.25;55.91
13581;BME280;6861;46.170;7.222;2023-03-26T12:10:29;95248.25;;;13.32;55.14
13581;BME280;6861;46.170;7.222;2023-03-26T12:13:01;95248.06;;;13.51;55.56
13581;BME280;6861;46.170;7.222;2023-03-26T12:15:29;95232.25;;;13.73;54.99
13581;BME280;6861;46.170;7.222;2023-03-26T12:18:17;95230.47;;;13.91;54.85
13581;BME280;6861;46.170;7.222;2023-03-26T12:20:46;95236.41;;;14.05;54.89
13581;BME280;6861;46.170;7.222;2023-03-26T12:23:35;95232.56;;;14.11;54.15
13581;BME280;6861;46.170;7.222;2023-03-26T12:26:12;95231.50;;;14.21;53.96
13581;BME280;6861;46.170;7.222;2023-03-26T12:28:45;95209.88;;;14.32;53.24
13581;BME280;6861;46.170;7.222;2023-03-26T12:31:15;95189.66;;;14.41;53.22
13581;BME280;6861;46.170;7.222;2023-03-26T12:34:03;95194.78;;;14.55;53.46
13581;BME280;6861;46.170;7.222;2023-03-26T12:36:33;95194.31;;;14.62;53.63
13581;BME280;6861;46.170;7.222;2023-03-26T12:39:23;95200.03;;;14.81;53.18
13581;BME280;6861;46.170;7.222;2023-03-26T12:42:28;95188.41;;;14.99;52.45
13581;BME280;6861;46.170;7.222;2023-03-26T12:45:19;95164.09;;;15.02;52.37
13581;BME280;6861;46.170;7.222;2023-03-26T12:47:50;95142.25;;;14.93;52.29
13581;BME280;6861;46.170;7.222;2023-03-26T12:50:32;95138.81;;;15.01;51.92
13581;BME280;6861;46.170;7.222;2023-03-26T12:56:00;95104.06;;;15.17;51.26
13581;BME280;6861;46.170;7.222;2023-03-26T12:58:53;95094.47;;;15.21;51.30
13581;BME280;6861;46.170;7.222;2023-03-26T13:01:29;95078.97;;;15.11;51.60
13581;BME280;6861;46.170;7.222;2023-03-26T13:04:22;95066.16;;;14.92;52.05
13581;BME280;6861;46.170;7.222;2023-03-26T13:06:56;95045.78;;;14.71;52.40
13581;BME280;6861;46.170;7.222;2023-03-26T13:09:37;95043.47;;;14.53;53.06
13581;BME280;6861;46.170;7.222;2023-03-26T13:12:20;95034.34;;;14.33;53.56
13581;BME280;6861;46.170;7.222;2023-03-26T13:15:11;95042.06;;;14.12;53.98
13581;BME280;6861;46.170;7.222;2023-03-26T13:17:51;95040.03;;;14.00;53.50
13581;BME280;6861;46.170;7.222;2023-03-26T13:20:28;95024.88;;;13.89;53.13
13581;BME280;6861;46.170;7.222;2023-03-26T13:23:02;95012.19;;;13.91;53.42
13581;BME280;6861;46.170;7.222;2023-03-26T13:25:40;95015.28;;;14.10;52.75
13581;BME280;6861;46.170;7.222;2023-03-26T13:28:23;95016.69;;;14.33;52.47
13581;BME280;6861;46.170;7.222;2023-03-26T13:31:05;95015.00;;;14.55;52.08
13581;BME280;6861;46.170;7.222;2023-03-26T13:33:44;95010.47;;;14.64;51.30
13581;BME280;6861;46.170;7.222;2023-03-26T13:36:18;95001.66;;;14.60;51.12
13581;BME280;6861;46.170;7.222;2023-03-26T13:39:11;95013.44;;;14.54;51.57
13581;BME280;6861;46.170;7.222;2023-03-26T13:41:52;95018.41;;;14.47;51.27
13581;BME280;6861;46.170;7.222;2023-03-26T13:44:31;95041.91;;;14.34;51.42
13581;BME280;6861;46.170;7.222;2023-03-26T13:47:07;95058.00;;;14.24;51.84
13581;BME280;6861;46.170;7.222;2023-03-26T13:49:41;95048.41;;;14.11;51.29
13581;BME280;6861;46.170;7.222;2023-03-26T13:52:13;95064.50;;;14.01;52.24
13581;BME280;6861;46.170;7.222;2023-03-26T13:54:48;95081.19;;;13.88;52.14
13581;BME280;6861;46.170;7.222;2023-03-26T13:57:21;95101.75;;;13.77;53.12
13581;BME280;6861;46.170;7.222;2023-03-26T13:59:54;95118.25;;;13.60;51.98
13581;BME280;6861;46.170;7.222;2023-03-26T14:02:30;95118.63;;;13.45;51.45
13581;BME280;6861;46.170;7.222;2023-03-26T14:05:05;95131.81;;;13.23;50.94
13581;BME280;6861;46.170;7.222;2023-03-26T14:07:40;95155.59;;;12.95;51.61
13581;BME280;6861;46.170;7.222;2023-03-26T14:10:12;95166.94;;;12.82;51.29
13581;BME280;6861;46.170;7.222;2023-03-26T14:12:51;95185.72;;;12.75;51.29
13581;BME280;6861;46.170;7.222;2023-03-26T14:15:25;95198.47;;;12.68;51.43
13581;BME280;6861;46.170;7.222;2023-03-26T14:18:02;95208.78;;;12.65;52.27
13581;BME280;6861;46.170;7.222;2023-03-26T14:21:05;95235.25;;;12.55;52.78
13581;BME280;6861;46.170;7.222;2023-03-26T14:26:45;95277.81;;;12.24;53.90
13581;BME280;6861;46.170;7.222;2023-03-26T14:29:27;95271.63;;;11.74;53.64
13581;BME280;6861;46.170;7.222;2023-03-26T14:32:05;95275.47;;;11.16;54.69
13581;BME280;6861;46.170;7.222;2023-03-26T14:34:49;95278.41;;;10.72;56.58
13581;BME280;6861;46.170;7.222;2023-03-26T14:37:41;95238.78;;;10.41;57.23